Latest Weather Observations for Edinburgh

IDS60901

Issued at 10:51 pm CST Monday 24 April 2017 (issued every 10 minutes, with the page automatically refreshed every 10 minutes)

About weather observations | Map of Adelaide area stations | Latest observations for Adelaide area | Other Formats
Station Details ID: 023083 Name: EDINBURGH RAAF Lat: -34.71 Lon: 138.62 Height: 16.54 m
Data from the previous 72 hours. | See also: Recent months at Edinburgh
Date/Time
CST
Temp
°C
App
Temp
°C
Dew
Point
°C
Rel
Hum
%
Delta-T
°C
Wind Press
QNH
hPa
Press
MSL
hPa
Rain since
9am
mm
Dir  Spd
km/h
Gust
km/h
Spd
kts
Gust
kts
24/10:41pm 16.6 15.6 15.5 93 0.6 NW 15 19 8 10 1013.4 1013.3 1.6
24/10:30pm 16.4 15.3 15.3 93 0.6 NNW 15 17 8 9 1013.4 1013.3 1.6
24/10:01pm 16.3 15.9 15.2 93 0.6 N 11 15 6 8 1013.6 1013.5 1.6
24/10:00pm 16.2 15.8 15.1 93 0.6 N 11 15 6 8 1013.6 1013.5 1.6
24/09:30pm 16.1 15.6 14.8 92 0.7 NNE 11 15 6 8 1013.7 1013.6 1.6
24/09:00pm 16.4 16.4 15.1 92 0.8 NNE 9 11 5 6 1013.8 1013.7 1.6
24/08:30pm 16.8 17.5 15.5 92 0.8 N 6 9 3 5 1013.8 1013.7 1.6
24/08:00pm 16.9 17.4 15.6 92 0.8 NNE 7 9 4 5 1014.0 1013.9 1.6
24/07:30pm 16.9 16.3 15.6 92 0.8 N 13 17 7 9 1014.1 1014.0 1.6
24/07:13pm 16.7 15.6 15.4 92 0.8 N 15 17 8 9 1014.0 1013.9 1.6
24/07:00pm 16.6 15.0 15.1 91 0.9 NW 17 24 9 13 1014.0 1013.9 1.6
24/06:35pm 17.0 13.7 15.0 88 1.2 WNW 26 32 14 17 1014.0 1013.9 0.4
24/06:30pm 17.3 15.1 14.9 86 1.4 WNW 20 32 11 17 1013.9 1013.8 0.2
24/06:00pm 18.3 16.6 15.7 85 1.5 WNW 19 24 10 13 1013.6 1013.5 0.2
24/05:30pm 18.5 17.1 15.6 83 1.7 WNW 17 22 9 12 1013.7 1013.6 0.2
24/05:00pm 18.8 18.3 15.9 83 1.7 NW 13 19 7 10 1013.4 1013.3 0.2
24/04:30pm 18.9 17.6 15.8 82 1.8 NW 17 20 9 11 1013.6 1013.5 0.2
24/04:00pm 19.1 18.2 15.8 81 2.0 NNW 15 19 8 10 1013.7 1013.6 0.2
24/03:30pm 19.5 17.6 15.2 76 2.5 NW 19 24 10 13 1014.0 1013.9 0.2
24/03:00pm 20.4 18.3 14.7 70 3.3 WNW 19 26 10 14 1014.0 1013.9 0.2
24/02:30pm 20.4 18.2 16.0 76 2.6 WNW 22 26 12 14 1013.9 1013.8 0.2
24/02:00pm 20.9 19.0 15.7 72 3.1 NW 20 28 11 15 1013.8 1013.7 0.2
24/01:30pm 21.0 19.5 16.4 75 2.8 NNW 19 24 10 13 1014.4 1014.3 0.2
24/01:12pm 20.7 20.0 16.3 76 2.7 N 15 20 8 11 1014.2 1014.1 0.2
24/01:00pm 20.8 20.5 16.4 76 2.7 NNW 13 19 7 10 1014.4 1014.3 0.2
24/12:30pm 20.4 19.5 16.8 80 2.2 NNW 17 20 9 11 1015.4 1015.3 0.2
24/12:17pm 20.2 19.4 17.0 82 1.9 NNW 17 20 9 11 1015.7 1015.6 0.2
24/12:00pm 19.7 19.8 16.5 82 1.9 NNW 11 15 6 8 1016.0 1015.9 0.2
24/11:30am 19.2 18.0 16.2 83 1.8 NW 17 20 9 11 1016.7 1016.6 0.2
24/11:12am 19.4 18.7 16.4 83 1.8 NNW 15 19 8 10 1017.0 1016.9 0.2
24/11:00am 19.6 19.4 16.6 83 1.8 N 13 20 7 11 1017.0 1016.9 0.2
24/10:30am 18.9 18.8 16.1 84 1.7 NNE 11 13 6 7 1017.1 1017.0 0.2
24/10:00am 18.2 17.8 16.2 88 1.2 NE 13 17 7 9 1016.9 1016.8 0.2
24/09:30am 17.5 17.6 15.5 88 1.2 ENE 9 11 5 6 1017.1 1017.0 0.2
24/09:00am 17.2 17.2 15.2 88 1.2 ENE 9 11 5 6 1017.5 1017.4 0.2
24/08:30am 16.8 16.8 15.2 90 0.9 NE 9 11 5 6 1017.7 1017.6 0.2
24/08:00am 16.0 16.3 14.5 91 0.9 NNE 6 7 3 4 1017.5 1017.4 0.2
24/07:30am 15.5 16.8 14.0 91 0.8 CALM 0 0 0 0 1017.4 1017.3 0.2
24/07:00am 15.1 15.5 13.6 91 0.8 WNW 4 7 2 4 1017.4 1017.3 0.2
24/06:30am 14.7 15.7 13.1 90 0.9 CALM 0 0 0 0 1017.2 1017.1 0.2
24/06:00am 15.7 15.8 13.9 89 1.0 ESE 6 7 3 4 1016.9 1016.8 0.2
24/05:30am 15.5 15.6 13.9 90 0.9 SSE 6 9 3 5 1017.4 1017.3 0.2
24/05:00am 15.2 15.2 13.6 90 0.9 SSW 6 7 3 4 1017.6 1017.5 0.2
24/04:30am 14.8 14.5 12.8 88 1.1 WSW 6 7 3 4 1017.6 1017.5 0.2
24/04:00am 15.7 15.3 13.0 84 1.5 WSW 7 9 4 5 1017.6 1017.5 0.2
24/03:30am 17.5 16.9 13.6 78 2.2 E 9 13 5 7 1017.8 1017.7 0.2
24/03:00am 17.7 17.6 14.0 79 2.1 ESE 7 9 4 5 1018.3 1018.2 0.2
24/02:30am 17.8 17.7 13.9 78 2.2 E 7 9 4 5 1018.8 1018.7 0.2
24/02:00am 17.8 18.3 14.9 83 1.7 ESE 6 7 3 4 1019.1 1019.0 0.2
24/01:30am 18.0 18.1 14.5 80 2.0 S 7 9 4 5 1019.6 1019.5 0.2
24/01:00am 18.3 19.1 14.8 80 2.0 SE 4 7 2 4 1019.8 1019.7 0.0
24/12:30am 18.0 18.0 15.1 83 1.7 SW 9 13 5 7 1020.0 1019.9 0.0
24/12:00am 18.8 18.3 15.9 83 1.7 W 13 17 7 9 1020.0 1019.9 0.0
 
Date/Time
CST
Temp
°C
App
Temp
°C
Dew
Point
°C
Rel
Hum
%
Delta-T
°C
Wind Press
QNH
hPa
Press
MSL
hPa
Rain since
9am
mm
Dir  Spd
km/h
Gust
km/h
Spd
kts
Gust
kts
23/11:30pm 18.9 19.0 15.6 81 1.9 W 9 13 5 7 1020.0 1019.9 0.0
23/11:00pm 19.3 20.7 14.3 73 2.9 CALM 0 0 0 0 1019.9 1019.8 0.0
23/10:30pm 19.4 19.7 14.6 74 2.8 NNE 6 7 3 4 1020.1 1020.0 0.0
23/10:00pm 19.2 19.5 15.1 77 2.4 N 7 9 4 5 1020.4 1020.3 0.0
23/09:30pm 19.1 19.6 15.0 77 2.4 NNW 6 9 3 5 1020.5 1020.4 0.0
23/09:00pm 19.8 21.5 15.2 75 2.7 CALM 0 6 0 3 1020.6 1020.5 0.0
23/08:30pm 19.7 21.5 15.4 76 2.5 CALM 0 0 0 0 1020.5 1020.4 0.0
23/08:00pm 19.6 20.2 15.3 76 2.5 SSW 6 7 3 4 1020.6 1020.5 0.0
23/07:30pm 20.0 20.6 15.2 74 2.8 SSE 6 6 3 3 1020.5 1020.4 0.0
23/07:00pm 20.0 20.4 15.2 74 2.8 SSW 7 9 4 5 1020.4 1020.3 0.0
23/06:30pm 19.9 19.8 14.9 73 2.9 N 9 9 5 5 1020.3 1020.2 0.0
23/06:00pm 20.7 21.4 14.4 67 3.7 WSW 4 9 2 5 1020.0 1019.9 0.0
23/05:30pm 21.2 20.8 14.1 64 4.1 NW 9 11 5 6 1020.0 1019.9 0.0
23/05:00pm 21.5 21.1 14.2 63 4.3 NW 9 17 5 9 1020.0 1019.9 0.0
23/04:30pm 20.8 20.3 14.9 69 3.5 SW 11 17 6 9 1020.0 1019.9 0.0
23/04:00pm 21.4 18.6 13.3 60 4.6 NNE 20 28 11 15 1020.2 1020.1 0.0
23/03:30pm 23.9 22.8 11.9 47 6.8 ESE 9 11 5 6 1019.9 1019.8 0.0
23/03:00pm 24.3 23.7 11.6 45 7.2 SSE 6 11 3 6 1019.9 1019.8 0.0
23/02:30pm 24.2 23.5 11.5 45 7.1 E 6 13 3 7 1019.9 1019.8 0.0
23/02:00pm 24.5 23.6 11.5 44 7.3 ENE 7 15 4 8 1020.1 1020.0 0.0
23/01:30pm 24.7 23.9 11.6 44 7.4 ENE 7 11 4 6 1020.2 1020.1 0.0
23/01:00pm 24.0 22.1 11.7 46 7.0 ENE 13 20 7 11 1020.6 1020.5 0.0
23/12:30pm 24.4 22.5 11.7 45 7.2 ENE 13 24 7 13 1021.1 1021.0 0.0
23/12:00pm 23.6 21.0 12.0 48 6.6 NE 17 22 9 12 1021.6 1021.5 0.0
23/11:30am 23.2 21.4 12.2 50 6.2 ENE 13 19 7 10 1022.0 1021.9 0.0
23/11:00am 23.2 21.5 12.5 51 6.1 NE 13 19 7 10 1022.2 1022.1 0.0
23/10:30am 22.7 19.9 11.4 49 6.3 ENE 17 24 9 13 1022.3 1022.2 0.0
23/10:00am 21.7 18.9 11.4 52 5.7 E 17 24 9 13 1022.6 1022.5 0.0
23/09:30am 20.7 18.6 11.1 54 5.3 E 13 19 7 10 1023.0 1022.9 0.0
23/09:00am 20.0 19.1 11.5 58 4.7 SE 7 9 4 5 1023.2 1023.1 0.0
23/08:30am 18.6 18.1 12.6 68 3.3 SSW 7 9 4 5 1023.1 1023.0 0.0
23/08:00am 17.0 16.5 11.9 72 2.8 SSW 6 7 3 4 1022.9 1022.8 0.0
23/07:30am 16.2 15.4 11.8 75 2.4 SSW 7 9 4 5 1022.6 1022.5 0.0
23/07:00am 16.8 15.3 10.6 67 3.3 NNE 9 13 5 7 1022.4 1022.3 0.0
23/06:30am 17.0 15.8 10.4 65 3.5 NNE 7 11 4 6 1022.0 1021.9 0.0
23/06:00am 17.9 16.1 10.8 63 3.8 ENE 11 17 6 9 1021.6 1021.5 0.0
23/05:30am 18.0 15.9 11.1 64 3.7 ENE 13 19 7 10 1021.4 1021.3 0.0
23/05:00am 15.3 15.3 11.1 76 2.2 SE 2 7 1 4 1021.3 1021.2 0.0
23/04:30am 15.4 15.8 11.2 76 2.2 CALM 0 0 0 0 1021.3 1021.2 0.0
23/04:00am 15.3 14.8 10.9 75 2.3 NW 4 7 2 4 1021.4 1021.3 0.0
23/03:30am 16.6 15.9 11.5 72 2.8 ESE 6 11 3 6 1021.3 1021.2 0.0
23/03:00am 16.2 15.2 12.2 77 2.2 NW 9 11 5 6 1021.4 1021.3 0.0
23/02:30am 15.8 15.5 11.4 75 2.4 WSW 4 9 2 5 1021.7 1021.6 0.0
23/02:00am 17.0 16.1 10.8 67 3.3 E 6 13 3 7 1021.9 1021.8 0.0
23/01:30am 18.0 16.4 11.6 66 3.5 E 11 17 6 9 1021.9 1021.8 0.0
23/01:00am 17.8 17.2 11.8 68 3.3 SE 6 11 3 6 1022.0 1021.9 0.0
23/12:30am 17.9 16.7 11.7 67 3.4 ESE 9 17 5 9 1022.1 1022.0 0.0
23/12:00am 17.9 16.0 11.7 67 3.4 ESE 13 22 7 12 1022.1 1022.0 0.0
 
Date/Time
CST
Temp
°C
App
Temp
°C
Dew
Point
°C
Rel
Hum
%
Delta-T
°C
Wind Press
QNH
hPa
Press
MSL
hPa
Rain since
9am
mm
Dir  Spd
km/h
Gust
km/h
Spd
kts
Gust
kts
22/11:30pm 18.2 15.5 11.7 66 3.6 ESE 17 26 9 14 1022.3 1022.2 0.0
22/11:00pm 18.3 16.4 11.8 66 3.6 SE 13 22 7 12 1022.5 1022.4 0.0
22/10:30pm 18.4 17.3 11.9 66 3.6 SE 9 13 5 7 1022.5 1022.4 0.0
22/10:00pm 18.8 17.1 12.3 66 3.6 ESE 13 19 7 10 1022.4 1022.3 0.0
22/09:30pm 18.8 18.0 13.0 69 3.3 ESE 9 15 5 8 1022.6 1022.5 0.0
22/09:00pm 18.6 17.0 12.8 69 3.2 ESE 13 19 7 10 1022.4 1022.3 0.0
22/08:30pm 18.6 17.7 12.6 68 3.3 SE 9 15 5 8 1022.3 1022.2 0.0
22/08:00pm 19.2 18.7 12.5 65 3.7 ESE 7 11 4 6 1022.3 1022.2 0.0
22/07:30pm 20.1 18.0 12.3 61 4.4 ESE 15 22 8 12 1022.0 1021.9 0.0
22/07:00pm 20.7 19.3 12.1 58 4.8 E 11 13 6 7 1021.8 1021.7 0.0
22/06:30pm 21.5 20.1 12.1 55 5.3 ENE 11 17 6 9 1021.6 1021.5 0.0
22/06:00pm 21.9 20.5 12.2 54 5.5 ESE 11 15 6 8 1021.2 1021.1 0.0
22/05:30pm 21.4 20.3 13.1 59 4.7 S 11 17 6 9 1020.9 1020.8 0.0
22/05:00pm 22.3 19.6 12.8 55 5.4 SW 19 22 10 12 1020.9 1020.8 0.0
22/04:30pm 22.4 20.1 12.9 55 5.4 SW 17 20 9 11 1020.8 1020.7 0.0
22/04:00pm 23.3 20.5 11.4 47 6.7 SW 17 20 9 11 1020.8 1020.7 0.0
22/03:30pm 23.8 21.8 11.5 46 6.9 SSW 13 17 7 9 1020.7 1020.6 0.0
22/03:00pm 23.9 22.4 11.9 47 6.8 S 11 15 6 8 1020.7 1020.6 0.0
22/02:30pm 23.5 21.4 12.5 50 6.3 SW 15 20 8 11 1020.8 1020.7 0.0
22/02:00pm 23.2 21.5 12.5 51 6.1 SW 13 17 7 9 1021.2 1021.1 0.0
22/01:30pm 23.0 21.7 12.6 52 5.9 SW 11 15 6 8 1021.3 1021.2 0.0
22/01:00pm 22.5 22.7 11.9 51 6.0 SW 2 9 1 5 1021.8 1021.7 0.0
22/12:30pm 22.9 21.8 11.9 50 6.2 NE 9 15 5 8 1022.1 1022.0 0.0
22/12:00pm 22.5 21.1 10.9 48 6.4 ENE 9 15 5 8 1022.5 1022.4 0.0
22/11:30am 22.6 22.0 11.7 50 6.1 NNW 6 7 3 4 1022.9 1022.8 0.0
22/11:00am 21.5 21.0 12.1 55 5.3 ESE 6 15 3 8 1023.3 1023.2 0.0
22/10:30am 21.0 20.9 13.4 62 4.3 NNE 6 9 3 5 1023.6 1023.5 0.0
22/10:00am 19.3 19.6 12.1 63 4.0 SE 2 6 1 3 1023.7 1023.6 0.0
22/09:30am 18.8 19.4 13.2 70 3.2 NNW 2 7 1 4 1023.9 1023.8 0.0
22/09:00am 16.6 17.8 13.7 83 1.6 CALM 0 2 0 1 1024.0 1023.9 0.0
22/08:30am 15.4 15.8 13.8 90 0.9 WNW 4 6 2 3 1023.8 1023.7 0.0
22/08:00am 14.4 14.2 13.0 91 0.8 SSW 6 9 3 5 1023.5 1023.4 0.0
22/07:30am 13.8 14.2 12.5 92 0.7 WSW 2 6 1 3 1023.3 1023.2 0.0
22/07:00am 13.3 12.6 12.0 92 0.7 NE 7 11 4 6 1022.8 1022.7 0.0
22/06:30am 12.9 12.6 11.6 92 0.7 NNE 4 9 2 5 1022.8 1022.7 0.0
22/06:00am 12.9 12.7 11.8 93 0.6 NNE 4 7 2 4 1022.5 1022.4 0.0
22/05:30am 12.2 12.5 10.9 92 0.7 CALM 0 6 0 3 1022.5 1022.4 0.0
22/05:00am 11.4 11.1 10.1 92 0.7 SW 2 6 1 3 1022.2 1022.1 0.0
22/04:30am 11.8 10.9 10.5 92 0.7 SSW 6 6 3 3 1022.2 1022.1 0.0
22/04:00am 11.4 10.7 10.1 92 0.7 S 4 7 2 4 1021.9 1021.8 0.0
22/03:30am 11.5 11.6 10.1 91 0.7 CALM 0 0 0 0 1022.0 1021.9 0.0
22/03:00am 11.8 11.9 10.2 90 0.8 CALM 0 0 0 0 1022.0 1021.9 0.0
22/02:30am 12.7 11.8 11.3 91 0.7 ENE 7 9 4 5 1022.2 1022.1 0.0
22/02:00am 12.4 11.0 11.0 91 0.7 NE 9 11 5 6 1022.4 1022.3 0.0
22/01:30am 12.2 11.2 10.4 89 0.9 ENE 6 7 3 4 1022.3 1022.2 0.0
22/01:00am 12.8 13.1 11.0 89 0.9 CALM 0 0 0 0 1022.4 1022.3 0.0
22/12:30am 13.7 13.2 11.9 89 1.0 ENE 6 9 3 5 1022.5 1022.4 0.0
22/12:00am 13.6 12.8 11.8 89 1.0 NE 7 7 4 4 1022.7 1022.6 0.0
 
Date/Time
CST
Temp
°C
App
Temp
°C
Dew
Point
°C
Rel
Hum
%
Delta-T
°C
Wind Press
QNH
hPa
Press
MSL
hPa
Rain since
9am
mm
Dir  Spd
km/h
Gust
km/h
Spd
kts
Gust
kts
21/11:30pm 13.1 12.6 10.8 86 1.2 ENE 4 9 2 5 1022.5 1022.4 0.0
21/11:00pm 14.7 14.5 11.8 83 1.6 SSE 4 7 2 4 1022.6 1022.5 0.0

Latest Capital City Observations: Canberra | Sydney | Melbourne | Brisbane | Adelaide | Perth | Hobart | Darwin

Other Formats:

Comma delimited format used in spreadsheet applications
http://www.bom.gov.au/fwo/IDS60901/IDS60901.95676.axf

JavaScript Object Notation format (JSON) in row-major order
http://www.bom.gov.au/fwo/IDS60901/IDS60901.95676.json